createdAt,value
2022-09-28T00:07:00.517Z,8.5
2022-09-28T00:17:01.000Z,8.4
2022-09-28T00:27:01.969Z,8.3
2022-09-28T00:37:02.639Z,8.2
2022-09-28T00:47:03.081Z,8.1
2022-09-28T00:57:03.181Z,8.1
2022-09-28T01:07:03.214Z,8
2022-09-28T01:17:03.491Z,8
2022-09-28T01:27:04.333Z,7.9
2022-09-28T01:37:04.919Z,8
2022-09-28T01:47:05.110Z,7.9
2022-09-28T01:57:05.278Z,7.9
2022-09-28T02:07:05.618Z,7.9
2022-09-28T02:17:06.246Z,7.9
2022-09-28T02:27:07.069Z,8
2022-09-28T02:37:07.478Z,8
2022-09-28T02:47:07.787Z,8
2022-09-28T02:57:07.957Z,8
2022-09-28T03:07:08.776Z,8.1
2022-09-28T03:17:09.294Z,8.1
2022-09-28T03:27:10.072Z,8
2022-09-28T03:37:11.003Z,8
2022-09-28T03:47:11.647Z,8
2022-09-28T03:57:12.578Z,8.1
2022-09-28T04:07:13.078Z,8
2022-09-28T04:17:13.232Z,8
2022-09-28T04:27:13.778Z,8
2022-09-28T04:37:14.492Z,8.1
2022-09-28T04:47:15.013Z,8.1
2022-09-28T05:07:15.910Z,8.1
2022-09-28T05:17:16.539Z,8.1
2022-09-28T05:27:16.827Z,8.1
2022-09-28T05:37:17.420Z,8.1
2022-09-28T05:47:18.321Z,8.2
2022-09-28T05:57:18.561Z,8.2
2022-09-28T06:07:19.488Z,8.2
2022-09-28T06:37:21.512Z,8.4
2022-09-28T06:47:21.811Z,8.4
2022-09-28T06:57:22.058Z,8.4
2022-09-28T07:07:22.787Z,8.5
2022-09-28T07:17:23.647Z,8.5
2022-09-28T07:37:24.635Z,8.7
2022-09-28T07:47:25.620Z,8.7
2022-09-28T08:07:27.480Z,9
2022-09-28T08:17:27.613Z,9
2022-09-28T08:27:28.218Z,9.1
2022-09-28T08:37:28.279Z,9.2
2022-09-28T08:47:28.319Z,9.5
2022-09-28T08:57:28.499Z,9.6
2022-09-28T09:07:28.546Z,9.8
2022-09-28T09:17:29.465Z,9.9
2022-09-28T09:27:29.909Z,10.2
2022-09-28T09:37:30.648Z,10.3
2022-09-28T09:47:30.698Z,10.5
2022-09-28T09:57:31.589Z,10.7
2022-09-28T10:07:32.288Z,10.8
2022-09-28T10:17:33.207Z,10.8
2022-09-28T10:27:33.530Z,10.7
2022-09-28T10:37:33.638Z,10.8
2022-09-28T10:47:34.042Z,11.1
2022-09-28T10:57:34.502Z,11.5
2022-09-28T11:07:34.583Z,11.7
2022-09-28T11:37:36.114Z,12.1
2022-09-28T11:47:36.218Z,12.3
2022-09-28T11:57:36.386Z,12.9
2022-09-28T12:17:38.042Z,13.4
2022-09-28T12:37:38.741Z,13.1
2022-09-28T12:57:39.297Z,13.1
2022-09-28T13:47:42.020Z,12.9
2022-09-28T14:07:43.594Z,13.1
2022-09-28T14:17:44.310Z,13.4
2022-09-28T14:27:44.431Z,13.3
2022-09-28T14:37:45.386Z,13
2022-09-28T14:57:47.021Z,13.4
2022-09-28T15:07:47.279Z,13.4
2022-09-28T15:17:48.286Z,13.4
2022-09-28T15:37:49.363Z,13.2
2022-09-28T15:47:50.263Z,13.1
2022-09-28T15:57:50.412Z,13
2022-09-28T16:17:51.135Z,12.7
2022-09-28T16:27:51.170Z,12.5
2022-09-28T16:47:52.009Z,12.2
2022-09-28T16:57:52.249Z,12
2022-09-28T17:07:53.035Z,11.8
2022-09-28T17:17:53.338Z,11.7
2022-09-28T17:27:54.126Z,11.6
2022-09-28T17:37:54.507Z,11.4
2022-09-28T17:47:55.286Z,11.2
2022-09-28T17:57:55.922Z,11.1
2022-09-28T18:07:56.808Z,10.9
2022-09-28T18:17:57.498Z,10.7
2022-09-28T18:27:57.825Z,10.6
2022-09-28T18:37:57.899Z,10.5
2022-09-28T18:47:58.495Z,10.5
2022-09-28T18:57:58.628Z,10.3
2022-09-28T19:07:58.857Z,10.2
2022-09-28T19:17:59.147Z,10.1
2022-09-28T19:27:59.869Z,9.9
2022-09-28T19:38:00.178Z,9.6
2022-09-28T19:48:00.353Z,9.5
2022-09-28T19:58:00.450Z,9.4
2022-09-28T20:18:01.297Z,9.4
2022-09-28T20:28:01.981Z,9.3
2022-09-28T20:38:02.261Z,9.2
2022-09-28T20:48:02.736Z,9
2022-09-28T20:58:02.882Z,8.8
2022-09-28T21:08:02.957Z,8.8
2022-09-28T21:18:03.858Z,8.7
2022-09-28T21:28:04.263Z,8.7
2022-09-28T21:38:04.750Z,8.6
2022-09-28T21:48:05.042Z,8.5
2022-09-28T21:58:05.782Z,8.4
2022-09-28T22:18:07.383Z,8.2
2022-09-28T22:28:07.989Z,8.1
2022-09-28T22:38:08.194Z,8
2022-09-28T22:48:09.118Z,7.9
2022-09-28T22:58:09.283Z,7.8
2022-09-28T23:08:09.782Z,7.8
2022-09-28T23:18:10.763Z,7.7
2022-09-28T23:38:11.905Z,7.3
2022-09-28T23:48:12.366Z,7.1
2022-09-28T23:58:13.253Z,6.9
